sensor_id;sensor_type;location;lat;lon;timestamp;temperature;humidity
2030;DHT22;1020;48.854;8.830;2023-05-07T00:00:34;12.80;99.90
2030;DHT22;1020;48.854;8.830;2023-05-07T00:03:01;12.80;99.90
2030;DHT22;1020;48.854;8.830;2023-05-07T00:05:29;12.70;99.90
2030;DHT22;1020;48.854;8.830;2023-05-07T00:07:56;12.70;99.90
2030;DHT22;1020;48.854;8.830;2023-05-07T00:10:23;12.60;1.00
2030;DHT22;1020;48.854;8.830;2023-05-07T00:12:50;12.60;1.00
2030;DHT22;1020;48.854;8.830;2023-05-07T00:15:17;12.60;1.00
2030;DHT22;1020;48.854;8.830;2023-05-07T00:17:44;12.60;1.00
2030;DHT22;1020;48.854;8.830;2023-05-07T00:20:11;14.10;1.00
2030;DHT22;1020;48.854;8.830;2023-05-07T00:22:39;12.70;1.00
2030;DHT22;1020;48.854;8.830;2023-05-07T00:25:07;12.70;99.90
2030;DHT22;1020;48.854;8.830;2023-05-07T00:27:34;12.70;99.90
2030;DHT22;1020;48.854;8.830;2023-05-07T00:30:00;12.70;99.90
2030;DHT22;1020;48.854;8.830;2023-05-07T00:32:27;12.70;99.90
2030;DHT22;1020;48.854;8.830;2023-05-07T00:34:54;12.60;99.90
2030;DHT22;1020;48.854;8.830;2023-05-07T00:37:21;12.60;99.90
2030;DHT22;1020;48.854;8.830;2023-05-07T00:39:49;12.60;99.90
2030;DHT22;1020;48.854;8.830;2023-05-07T00:42:15;12.60;99.90
2030;DHT22;1020;48.854;8.830;2023-05-07T00:44:42;12.60;99.90
2030;DHT22;1020;48.854;8.830;2023-05-07T00:47:09;12.60;98.60
2030;DHT22;1020;48.854;8.830;2023-05-07T00:49:38;12.50;99.90
2030;DHT22;1020;48.854;8.830;2023-05-07T00:52:06;12.40;4.20
2030;DHT22;1020;48.854;8.830;2023-05-07T00:54:34;12.40;83.40
2030;DHT22;1020;48.854;8.830;2023-05-07T00:57:03;12.30;99.90
2030;DHT22;1020;48.854;8.830;2023-05-07T00:59:31;12.30;99.90
2030;DHT22;1020;48.854;8.830;2023-05-07T01:01:58;12.40;99.90
2030;DHT22;1020;48.854;8.830;2023-05-07T01:04:26;12.40;99.90
2030;DHT22;1020;48.854;8.830;2023-05-07T01:06:55;12.40;99.90
2030;DHT22;1020;48.854;8.830;2023-05-07T01:09:22;12.40;99.90
2030;DHT22;1020;48.854;8.830;2023-05-07T01:11:50;12.40;99.90
2030;DHT22;1020;48.854;8.830;2023-05-07T01:14:19;12.40;99.90
2030;DHT22;1020;48.854;8.830;2023-05-07T01:16:47;12.30;99.90
2030;DHT22;1020;48.854;8.830;2023-05-07T01:19:14;12.30;99.90
2030;DHT22;1020;48.854;8.830;2023-05-07T01:21:46;12.20;99.90
2030;DHT22;1020;48.854;8.830;2023-05-07T01:24:15;12.20;1.00
2030;DHT22;1020;48.854;8.830;2023-05-07T01:26:42;12.00;1.00
2030;DHT22;1020;48.854;8.830;2023-05-07T01:29:09;11.10;1.00
2030;DHT22;1020;48.854;8.830;2023-05-07T01:31:36;11.90;1.00
2030;DHT22;1020;48.854;8.830;2023-05-07T01:34:05;11.90;1.00
2030;DHT22;1020;48.854;8.830;2023-05-07T01:36:34;12.00;1.00
2030;DHT22;1020;48.854;8.830;2023-05-07T01:39:02;11.90;1.00
2030;DHT22;1020;48.854;8.830;2023-05-07T01:41:30;11.90;1.00
2030;DHT22;1020;48.854;8.830;2023-05-07T01:43:58;11.90;1.00
2030;DHT22;1020;48.854;8.830;2023-05-07T01:46:26;11.90;1.00
2030;DHT22;1020;48.854;8.830;2023-05-07T01:48:53;11.80;1.00
2030;DHT22;1020;48.854;8.830;2023-05-07T01:51:20;11.80;1.00
2030;DHT22;1020;48.854;8.830;2023-05-07T01:53:47;11.80;1.00
2030;DHT22;1020;48.854;8.830;2023-05-07T01:56:16;11.80;1.00
2030;DHT22;1020;48.854;8.830;2023-05-07T01:58:44;11.80;1.00
2030;DHT22;1020;48.854;8.830;2023-05-07T02:01:12;11.80;1.00
2030;DHT22;1020;48.854;8.830;2023-05-07T02:03:39;11.90;1.00
2030;DHT22;1020;48.854;8.830;2023-05-07T02:06:06;11.90;1.00
2030;DHT22;1020;48.854;8.830;2023-05-07T02:08:33;11.90;1.00
2030;DHT22;1020;48.854;8.830;2023-05-07T02:10:59;12.00;1.00
2030;DHT22;1020;48.854;8.830;2023-05-07T02:13:28;12.00;1.00
2030;DHT22;1020;48.854;8.830;2023-05-07T02:15:57;12.00;1.00
2030;DHT22;1020;48.854;8.830;2023-05-07T02:18:23;12.00;1.00
2030;DHT22;1020;48.854;8.830;2023-05-07T02:20:50;12.00;1.00
2030;DHT22;1020;48.854;8.830;2023-05-07T02:23:17;12.00;1.00
2030;DHT22;1020;48.854;8.830;2023-05-07T02:25:44;12.00;1.00
2030;DHT22;1020;48.854;8.830;2023-05-07T02:28:11;12.00;1.00
2030;DHT22;1020;48.854;8.830;2023-05-07T02:30:38;11.90;1.00
2030;DHT22;1020;48.854;8.830;2023-05-07T02:33:06;11.90;1.00
2030;DHT22;1020;48.854;8.830;2023-05-07T02:35:33;11.90;1.00
2030;DHT22;1020;48.854;8.830;2023-05-07T02:38:00;11.90;1.00
2030;DHT22;1020;48.854;8.830;2023-05-07T02:40:27;11.90;1.00
2030;DHT22;1020;48.854;8.830;2023-05-07T02:42:55;11.90;1.00
2030;DHT22;1020;48.854;8.830;2023-05-07T02:45:21;11.80;1.00
2030;DHT22;1020;48.854;8.830;2023-05-07T02:47:48;11.80;1.00
2030;DHT22;1020;48.854;8.830;2023-05-07T02:50:16;11.90;1.00
2030;DHT22;1020;48.854;8.830;2023-05-07T02:52:43;11.90;1.00
2030;DHT22;1020;48.854;8.830;2023-05-07T02:55:10;11.90;1.00
2030;DHT22;1020;48.854;8.830;2023-05-07T02:57:37;11.80;1.00
2030;DHT22;1020;48.854;8.830;2023-05-07T03:00:21;11.80;1.00
2030;DHT22;1020;48.854;8.830;2023-05-07T03:02:48;11.70;1.00
2030;DHT22;1020;48.854;8.830;2023-05-07T03:05:16;11.70;1.00
2030;DHT22;1020;48.854;8.830;2023-05-07T03:07:43;11.60;1.00
2030;DHT22;1020;48.854;8.830;2023-05-07T03:10:11;11.60;1.00
2030;DHT22;1020;48.854;8.830;2023-05-07T03:12:38;11.60;1.00
2030;DHT22;1020;48.854;8.830;2023-05-07T03:15:05;11.60;1.00
2030;DHT22;1020;48.854;8.830;2023-05-07T03:17:33;11.50;1.00
2030;DHT22;1020;48.854;8.830;2023-05-07T03:20:00;11.50;1.00
2030;DHT22;1020;48.854;8.830;2023-05-07T03:22:28;11.40;1.00
2030;DHT22;1020;48.854;8.830;2023-05-07T03:24:55;11.40;1.00
2030;DHT22;1020;48.854;8.830;2023-05-07T03:27:22;11.30;1.00
2030;DHT22;1020;48.854;8.830;2023-05-07T03:29:48;11.30;9.50
2030;DHT22;1020;48.854;8.830;2023-05-07T03:32:15;11.30;11.30
2030;DHT22;1020;48.854;8.830;2023-05-07T03:34:42;11.20;17.10
2030;DHT22;1020;48.854;8.830;2023-05-07T03:37:08;11.10;27.10
2030;DHT22;1020;48.854;8.830;2023-05-07T03:39:36;11.10;39.70
2030;DHT22;1020;48.854;8.830;2023-05-07T03:42:03;11.10;52.50
2030;DHT22;1020;48.854;8.830;2023-05-07T03:44:30;11.10;67.80
2030;DHT22;1020;48.854;8.830;2023-05-07T03:46:57;11.10;77.50
2030;DHT22;1020;48.854;8.830;2023-05-07T03:49:24;11.10;80.00
2030;DHT22;1020;48.854;8.830;2023-05-07T03:51:51;11.20;75.00
2030;DHT22;1020;48.854;8.830;2023-05-07T03:54:17;11.20;63.40
2030;DHT22;1020;48.854;8.830;2023-05-07T03:56:45;11.30;57.90
2030;DHT22;1020;48.854;8.830;2023-05-07T03:59:12;11.30;48.20
2030;DHT22;1020;48.854;8.830;2023-05-07T04:01:39;11.30;43.80
2030;DHT22;1020;48.854;8.830;2023-05-07T04:04:06;11.40;34.10
2030;DHT22;1020;48.854;8.830;2023-05-07T04:06:33;11.40;28.70
2030;DHT22;1020;48.854;8.830;2023-05-07T04:09:00;11.50;22.40
2030;DHT22;1020;48.854;8.830;2023-05-07T04:11:26;11.40;14.20
2030;DHT22;1020;48.854;8.830;2023-05-07T04:13:54;11.40;12.50
2030;DHT22;1020;48.854;8.830;2023-05-07T04:16:21;11.40;10.40
2030;DHT22;1020;48.854;8.830;2023-05-07T04:18:48;11.40;7.30
2030;DHT22;1020;48.854;8.830;2023-05-07T04:21:15;11.50;7.20
2030;DHT22;1020;48.854;8.830;2023-05-07T04:23:42;11.50;1.00
2030;DHT22;1020;48.854;8.830;2023-05-07T04:26:09;11.50;1.00
2030;DHT22;1020;48.854;8.830;2023-05-07T04:28:36;11.60;1.00
2030;DHT22;1020;48.854;8.830;2023-05-07T04:31:04;11.70;1.00
2030;DHT22;1020;48.854;8.830;2023-05-07T04:33:32;11.70;1.00
2030;DHT22;1020;48.854;8.830;2023-05-07T04:36:00;11.70;1.00
2030;DHT22;1020;48.854;8.830;2023-05-07T04:38:28;11.70;1.00
2030;DHT22;1020;48.854;8.830;2023-05-07T04:40:55;11.60;1.00
2030;DHT22;1020;48.854;8.830;2023-05-07T04:43:22;11.60;1.00
2030;DHT22;1020;48.854;8.830;2023-05-07T04:45:50;11.60;1.00
2030;DHT22;1020;48.854;8.830;2023-05-07T04:48:18;11.80;1.00
2030;DHT22;1020;48.854;8.830;2023-05-07T04:50:47;11.80;1.00
2030;DHT22;1020;48.854;8.830;2023-05-07T04:53:14;11.90;1.00
2030;DHT22;1020;48.854;8.830;2023-05-07T04:55:41;11.80;1.00
2030;DHT22;1020;48.854;8.830;2023-05-07T04:58:09;11.90;1.00
2030;DHT22;1020;48.854;8.830;2023-05-07T05:00:36;12.00;1.00
2030;DHT22;1020;48.854;8.830;2023-05-07T05:03:03;11.90;1.00
2030;DHT22;1020;48.854;8.830;2023-05-07T05:05:31;11.90;1.00
2030;DHT22;1020;48.854;8.830;2023-05-07T05:07:58;11.90;1.00
2030;DHT22;1020;48.854;8.830;2023-05-07T05:10:25;12.00;1.00
2030;DHT22;1020;48.854;8.830;2023-05-07T05:12:52;12.00;1.00
2030;DHT22;1020;48.854;8.830;2023-05-07T05:15:18;12.10;1.00
2030;DHT22;1020;48.854;8.830;2023-05-07T05:17:45;12.20;1.00
2030;DHT22;1020;48.854;8.830;2023-05-07T05:20:12;12.40;1.00
2030;DHT22;1020;48.854;8.830;2023-05-07T05:22:41;12.50;1.00
2030;DHT22;1020;48.854;8.830;2023-05-07T05:25:08;12.80;1.00
2030;DHT22;1020;48.854;8.830;2023-05-07T05:27:35;13.00;1.00
2030;DHT22;1020;48.854;8.830;2023-05-07T05:30:02;13.20;1.00
2030;DHT22;1020;48.854;8.830;2023-05-07T05:32:31;13.50;99.90
2030;DHT22;1020;48.854;8.830;2023-05-07T05:34:57;13.60;99.90
2030;DHT22;1020;48.854;8.830;2023-05-07T05:37:25;13.70;99.90
2030;DHT22;1020;48.854;8.830;2023-05-07T05:39:53;13.80;1.00
2030;DHT22;1020;48.854;8.830;2023-05-07T05:42:21;13.90;1.00
2030;DHT22;1020;48.854;8.830;2023-05-07T05:44:47;14.20;1.00
2030;DHT22;1020;48.854;8.830;2023-05-07T05:47:14;14.40;99.90
2030;DHT22;1020;48.854;8.830;2023-05-07T05:49:41;14.50;1.00
2030;DHT22;1020;48.854;8.830;2023-05-07T05:52:09;14.30;99.90
2030;DHT22;1020;48.854;8.830;2023-05-07T05:54:36;14.00;1.00
2030;DHT22;1020;48.854;8.830;2023-05-07T05:57:04;14.10;99.90
2030;DHT22;1020;48.854;8.830;2023-05-07T05:59:31;14.30;99.90
2030;DHT22;1020;48.854;8.830;2023-05-07T06:01:58;13.30;99.90
2030;DHT22;1020;48.854;8.830;2023-05-07T06:04:25;14.90;1.00
2030;DHT22;1020;48.854;8.830;2023-05-07T06:06:51;15.10;1.00
2030;DHT22;1020;48.854;8.830;2023-05-07T06:09:18;15.20;99.90
2030;DHT22;1020;48.854;8.830;2023-05-07T06:11:45;15.40;73.60
2030;DHT22;1020;48.854;8.830;2023-05-07T06:14:13;15.60;1.00
2030;DHT22;1020;48.854;8.830;2023-05-07T06:16:40;15.80;1.00
2030;DHT22;1020;48.854;8.830;2023-05-07T06:19:07;15.80;1.00
2030;DHT22;1020;48.854;8.830;2023-05-07T06:21:34;15.70;1.00
2030;DHT22;1020;48.854;8.830;2023-05-07T06:24:00;15.80;1.00
2030;DHT22;1020;48.854;8.830;2023-05-07T06:26:27;16.00;1.00
2030;DHT22;1020;48.854;8.830;2023-05-07T06:28:54;16.20;1.00
2030;DHT22;1020;48.854;8.830;2023-05-07T06:31:22;16.40;99.90
2030;DHT22;1020;48.854;8.830;2023-05-07T06:33:49;16.20;99.90
2030;DHT22;1020;48.854;8.830;2023-05-07T06:36:16;16.60;99.90
2030;DHT22;1020;48.854;8.830;2023-05-07T06:38:43;16.80;99.90
2030;DHT22;1020;48.854;8.830;2023-05-07T06:41:09;16.80;99.90
2030;DHT22;1020;48.854;8.830;2023-05-07T06:43:36;16.70;99.90
2030;DHT22;1020;48.854;8.830;2023-05-07T06:46:03;16.90;99.90
2030;DHT22;1020;48.854;8.830;2023-05-07T06:48:31;17.10;99.90
2030;DHT22;1020;48.854;8.830;2023-05-07T06:50:58;17.10;85.60
2030;DHT22;1020;48.854;8.830;2023-05-07T06:53:25;17.30;87.90
2030;DHT22;1020;48.854;8.830;2023-05-07T06:55:52;17.50;87.90
2030;DHT22;1020;48.854;8.830;2023-05-07T06:58:18;17.70;35.80
2030;DHT22;1020;48.854;8.830;2023-05-07T07:00:45;17.60;9.90
2030;DHT22;1020;48.854;8.830;2023-05-07T07:03:12;17.60;15.30
2030;DHT22;1020;48.854;8.830;2023-05-07T07:05:41;17.70;9.30
2030;DHT22;1020;48.854;8.830;2023-05-07T07:08:07;17.80;4.90
2030;DHT22;1020;48.854;8.830;2023-05-07T07:10:34;16.80;1.00
2030;DHT22;1020;48.854;8.830;2023-05-07T07:13:01;18.40;1.00
2030;DHT22;1020;48.854;8.830;2023-05-07T07:15:28;18.70;1.00
2030;DHT22;1020;48.854;8.830;2023-05-07T07:17:54;18.70;1.00
2030;DHT22;1020;48.854;8.830;2023-05-07T07:20:21;19.00;1.00
2030;DHT22;1020;48.854;8.830;2023-05-07T07:22:49;19.30;1.00
2030;DHT22;1020;48.854;8.830;2023-05-07T07:25:16;19.50;1.00
2030;DHT22;1020;48.854;8.830;2023-05-07T07:27:43;21.30;1.00
2030;DHT22;1020;48.854;8.830;2023-05-07T07:30:10;19.80;1.00
2030;DHT22;1020;48.854;8.830;2023-05-07T07:32:37;19.10;1.00
2030;DHT22;1020;48.854;8.830;2023-05-07T07:35:04;19.10;1.00
2030;DHT22;1020;48.854;8.830;2023-05-07T07:37:31;18.90;1.00
2030;DHT22;1020;48.854;8.830;2023-05-07T07:40:00;19.00;1.00
2030;DHT22;1020;48.854;8.830;2023-05-07T07:42:26;19.20;1.00
2030;DHT22;1020;48.854;8.830;2023-05-07T07:44:54;19.30;1.00
2030;DHT22;1020;48.854;8.830;2023-05-07T07:47:22;19.00;1.00
2030;DHT22;1020;48.854;8.830;2023-05-07T07:49:49;19.00;1.00
2030;DHT22;1020;48.854;8.830;2023-05-07T07:52:16;18.90;1.00
2030;DHT22;1020;48.854;8.830;2023-05-07T07:54:42;19.00;1.00
2030;DHT22;1020;48.854;8.830;2023-05-07T07:57:10;18.70;1.00
2030;DHT22;1020;48.854;8.830;2023-05-07T07:59:37;18.60;1.00
2030;DHT22;1020;48.854;8.830;2023-05-07T08:02:05;18.80;1.00
2030;DHT22;1020;48.854;8.830;2023-05-07T08:04:32;18.90;1.00
2030;DHT22;1020;48.854;8.830;2023-05-07T08:06:58;19.40;1.00
2030;DHT22;1020;48.854;8.830;2023-05-07T08:09:25;19.70;1.00
2030;DHT22;1020;48.854;8.830;2023-05-07T08:11:53;19.70;1.00
2030;DHT22;1020;48.854;8.830;2023-05-07T08:14:21;20.10;1.00
2030;DHT22;1020;48.854;8.830;2023-05-07T08:16:47;20.50;1.00
2030;DHT22;1020;48.854;8.830;2023-05-07T08:19:14;21.10;1.00
2030;DHT22;1020;48.854;8.830;2023-05-07T08:21:41;21.90;1.00
2030;DHT22;1020;48.854;8.830;2023-05-07T08:24:08;22.00;99.90
2030;DHT22;1020;48.854;8.830;2023-05-07T08:26:34;22.70;99.90
2030;DHT22;1020;48.854;8.830;2023-05-07T08:29:04;23.00;99.90
2030;DHT22;1020;48.854;8.830;2023-05-07T08:31:32;23.10;99.90
2030;DHT22;1020;48.854;8.830;2023-05-07T08:33:59;24.30;99.90
2030;DHT22;1020;48.854;8.830;2023-05-07T08:36:26;24.10;99.90
2030;DHT22;1020;48.854;8.830;2023-05-07T08:38:54;24.10;99.90
2030;DHT22;1020;48.854;8.830;2023-05-07T08:41:21;23.60;99.90
2030;DHT22;1020;48.854;8.830;2023-05-07T08:43:49;23.90;99.90
2030;DHT22;1020;48.854;8.830;2023-05-07T08:46:17;23.90;99.90
2030;DHT22;1020;48.854;8.830;2023-05-07T08:48:48;24.00;99.90
2030;DHT22;1020;48.854;8.830;2023-05-07T08:51:18;24.10;99.90
2030;DHT22;1020;48.854;8.830;2023-05-07T08:53:45;24.70;99.90
2030;DHT22;1020;48.854;8.830;2023-05-07T08:56:14;24.50;99.90
2030;DHT22;1020;48.854;8.830;2023-05-07T08:58:41;24.40;99.90
2030;DHT22;1020;48.854;8.830;2023-05-07T09:01:10;24.60;99.90
2030;DHT22;1020;48.854;8.830;2023-05-07T09:03:37;24.60;99.90
2030;DHT22;1020;48.854;8.830;2023-05-07T09:06:06;24.40;99.90
2030;DHT22;1020;48.854;8.830;2023-05-07T09:08:33;24.40;99.90
2030;DHT22;1020;48.854;8.830;2023-05-07T09:11:00;24.30;99.90
2030;DHT22;1020;48.854;8.830;2023-05-07T09:13:28;24.40;99.90
2030;DHT22;1020;48.854;8.830;2023-05-07T09:15:55;24.70;99.90
2030;DHT22;1020;48.854;8.830;2023-05-07T09:18:24;25.20;99.90
2030;DHT22;1020;48.854;8.830;2023-05-07T09:20:50;26.10;99.90
2030;DHT22;1020;48.854;8.830;2023-05-07T09:23:18;27.10;99.90
2030;DHT22;1020;48.854;8.830;2023-05-07T09:25:46;26.40;99.90
2030;DHT22;1020;48.854;8.830;2023-05-07T09:28:13;26.60;99.90
2030;DHT22;1020;48.854;8.830;2023-05-07T09:30:40;27.90;99.90
2030;DHT22;1020;48.854;8.830;2023-05-07T09:33:06;28.40;99.90
2030;DHT22;1020;48.854;8.830;2023-05-07T09:35:33;29.00;99.90
2030;DHT22;1020;48.854;8.830;2023-05-07T09:38:01;29.50;99.90
2030;DHT22;1020;48.854;8.830;2023-05-07T09:40:30;29.70;99.90
2030;DHT22;1020;48.854;8.830;2023-05-07T09:43:08;29.00;99.90
2030;DHT22;1020;48.854;8.830;2023-05-07T09:45:36;26.60;99.90
2030;DHT22;1020;48.854;8.830;2023-05-07T09:48:05;25.50;99.90
2030;DHT22;1020;48.854;8.830;2023-05-07T09:50:36;25.20;99.90
2030;DHT22;1020;48.854;8.830;2023-05-07T09:53:04;25.50;99.90
2030;DHT22;1020;48.854;8.830;2023-05-07T09:55:32;25.50;99.90
2030;DHT22;1020;48.854;8.830;2023-05-07T09:57:59;24.80;99.90
2030;DHT22;1020;48.854;8.830;2023-05-07T10:00:28;24.40;99.90
2030;DHT22;1020;48.854;8.830;2023-05-07T10:02:56;24.20;99.90
2030;DHT22;1020;48.854;8.830;2023-05-07T10:05:24;23.90;99.90
2030;DHT22;1020;48.854;8.830;2023-05-07T10:07:53;23.80;99.90
2030;DHT22;1020;48.854;8.830;2023-05-07T10:10:21;24.20;99.90
2030;DHT22;1020;48.854;8.830;2023-05-07T10:12:50;24.50;99.90
2030;DHT22;1020;48.854;8.830;2023-05-07T10:15:18;24.40;99.90
2030;DHT22;1020;48.854;8.830;2023-05-07T10:17:45;24.70;99.90
2030;DHT22;1020;48.854;8.830;2023-05-07T10:20:12;24.60;99.90
2030;DHT22;1020;48.854;8.830;2023-05-07T10:22:41;24.60;99.90
2030;DHT22;1020;48.854;8.830;2023-05-07T10:25:14;25.00;99.90
2030;DHT22;1020;48.854;8.830;2023-05-07T10:27:43;25.40;99.90
2030;DHT22;1020;48.854;8.830;2023-05-07T10:30:18;25.60;99.90
2030;DHT22;1020;48.854;8.830;2023-05-07T10:32:49;25.80;99.90
2030;DHT22;1020;48.854;8.830;2023-05-07T10:35:20;25.60;99.90
2030;DHT22;1020;48.854;8.830;2023-05-07T10:37:48;25.60;99.90
2030;DHT22;1020;48.854;8.830;2023-05-07T10:40:15;25.70;99.90
2030;DHT22;1020;48.854;8.830;2023-05-07T10:42:58;25.60;99.90
2030;DHT22;1020;48.854;8.830;2023-05-07T10:45:28;25.70;99.90
2030;DHT22;1020;48.854;8.830;2023-05-07T10:48:10;25.70;99.90
2030;DHT22;1020;48.854;8.830;2023-05-07T10:50:38;25.60;99.90
2030;DHT22;1020;48.854;8.830;2023-05-07T10:53:24;25.60;99.90
2030;DHT22;1020;48.854;8.830;2023-05-07T10:58:43;25.50;99.90
2030;DHT22;1020;48.854;8.830;2023-05-07T11:01:11;25.30;99.90
2030;DHT22;1020;48.854;8.830;2023-05-07T11:04:12;25.10;99.90
2030;DHT22;1020;48.854;8.830;2023-05-07T11:06:40;25.10;99.90
2030;DHT22;1020;48.854;8.830;2023-05-07T11:09:07;25.10;99.90
2030;DHT22;1020;48.854;8.830;2023-05-07T11:11:46;25.10;99.90
2030;DHT22;1020;48.854;8.830;2023-05-07T11:14:42;25.00;99.90
2030;DHT22;1020;48.854;8.830;2023-05-07T11:17:10;24.90;99.90
2030;DHT22;1020;48.854;8.830;2023-05-07T11:19:50;24.80;99.90
2030;DHT22;1020;48.854;8.830;2023-05-07T11:22:37;24.70;99.90
2030;DHT22;1020;48.854;8.830;2023-05-07T11:25:06;24.80;99.90
2030;DHT22;1020;48.854;8.830;2023-05-07T11:27:34;24.70;99.90
2030;DHT22;1020;48.854;8.830;2023-05-07T11:30:00;24.70;99.90
2030;DHT22;1020;48.854;8.830;2023-05-07T11:32:28;24.90;99.90
2030;DHT22;1020;48.854;8.830;2023-05-07T11:34:57;25.00;99.90
2030;DHT22;1020;48.854;8.830;2023-05-07T11:37:25;25.10;99.90
2030;DHT22;1020;48.854;8.830;2023-05-07T11:40:03;25.20;99.90
2030;DHT22;1020;48.854;8.830;2023-05-07T11:42:32;25.20;99.90
2030;DHT22;1020;48.854;8.830;2023-05-07T11:44:59;25.40;99.90
2030;DHT22;1020;48.854;8.830;2023-05-07T11:47:26;25.70;99.90
2030;DHT22;1020;48.854;8.830;2023-05-07T11:49:53;26.00;99.90
2030;DHT22;1020;48.854;8.830;2023-05-07T11:52:22;25.70;99.90
2030;DHT22;1020;48.854;8.830;2023-05-07T11:54:49;25.90;99.90
2030;DHT22;1020;48.854;8.830;2023-05-07T11:57:18;25.80;99.90
2030;DHT22;1020;48.854;8.830;2023-05-07T11:59:45;26.10;99.90
2030;DHT22;1020;48.854;8.830;2023-05-07T12:02:13;26.40;99.90
2030;DHT22;1020;48.854;8.830;2023-05-07T12:04:41;26.80;99.90
2030;DHT22;1020;48.854;8.830;2023-05-07T12:07:11;27.10;99.90
2030;DHT22;1020;48.854;8.830;2023-05-07T12:09:38;27.00;99.90
2030;DHT22;1020;48.854;8.830;2023-05-07T12:12:05;27.10;99.90
2030;DHT22;1020;48.854;8.830;2023-05-07T12:14:37;26.50;99.90
2030;DHT22;1020;48.854;8.830;2023-05-07T12:17:05;26.20;99.90
2030;DHT22;1020;48.854;8.830;2023-05-07T12:19:33;26.00;99.90
2030;DHT22;1020;48.854;8.830;2023-05-07T12:22:01;25.60;99.90
2030;DHT22;1020;48.854;8.830;2023-05-07T12:24:28;25.50;99.90
2030;DHT22;1020;48.854;8.830;2023-05-07T12:26:55;25.50;99.90
2030;DHT22;1020;48.854;8.830;2023-05-07T12:29:22;24.90;99.90
2030;DHT22;1020;48.854;8.830;2023-05-07T12:31:50;24.50;99.90
2030;DHT22;1020;48.854;8.830;2023-05-07T12:34:17;24.30;99.90
2030;DHT22;1020;48.854;8.830;2023-05-07T12:36:44;24.40;99.90
2030;DHT22;1020;48.854;8.830;2023-05-07T12:39:11;24.10;99.90
2030;DHT22;1020;48.854;8.830;2023-05-07T12:41:53;23.90;99.90
2030;DHT22;1020;48.854;8.830;2023-05-07T12:44:22;23.80;99.90
2030;DHT22;1020;48.854;8.830;2023-05-07T12:46:49;23.50;99.90
2030;DHT22;1020;48.854;8.830;2023-05-07T12:49:17;23.50;99.90
2030;DHT22;1020;48.854;8.830;2023-05-07T12:51:44;22.60;99.90
2030;DHT22;1020;48.854;8.830;2023-05-07T12:54:12;21.30;99.90
2030;DHT22;1020;48.854;8.830;2023-05-07T12:56:39;20.80;99.90
2030;DHT22;1020;48.854;8.830;2023-05-07T12:59:06;20.70;99.90
2030;DHT22;1020;48.854;8.830;2023-05-07T13:01:34;20.80;99.90
2030;DHT22;1020;48.854;8.830;2023-05-07T13:04:03;20.80;99.90
2030;DHT22;1020;48.854;8.830;2023-05-07T13:06:32;20.80;99.90
2030;DHT22;1020;48.854;8.830;2023-05-07T13:08:59;20.70;99.90
2030;DHT22;1020;48.854;8.830;2023-05-07T13:11:25;20.70;1.00
2030;DHT22;1020;48.854;8.830;2023-05-07T13:13:52;20.40;1.00
2030;DHT22;1020;48.854;8.830;2023-05-07T13:16:19;20.10;1.00
2030;DHT22;1020;48.854;8.830;2023-05-07T13:18:45;19.90;1.00
2030;DHT22;1020;48.854;8.830;2023-05-07T13:21:12;19.60;1.00
2030;DHT22;1020;48.854;8.830;2023-05-07T13:23:40;19.30;1.00
2030;DHT22;1020;48.854;8.830;2023-05-07T13:26:07;18.80;1.00
2030;DHT22;1020;48.854;8.830;2023-05-07T13:28:34;18.70;1.00
2030;DHT22;1020;48.854;8.830;2023-05-07T13:31:01;18.70;1.00
2030;DHT22;1020;48.854;8.830;2023-05-07T13:33:28;18.40;1.00
2030;DHT22;1020;48.854;8.830;2023-05-07T13:35:55;18.20;1.00
2030;DHT22;1020;48.854;8.830;2023-05-07T13:38:23;17.90;1.00
2030;DHT22;1020;48.854;8.830;2023-05-07T13:40:51;17.70;1.00
2030;DHT22;1020;48.854;8.830;2023-05-07T13:43:18;17.30;99.90
2030;DHT22;1020;48.854;8.830;2023-05-07T13:45:45;17.00;1.00
2030;DHT22;1020;48.854;8.830;2023-05-07T13:48:12;16.70;1.00
2030;DHT22;1020;48.854;8.830;2023-05-07T13:50:39;16.40;57.70
2030;DHT22;1020;48.854;8.830;2023-05-07T13:53:07;16.30;1.00
2030;DHT22;1020;48.854;8.830;2023-05-07T13:55:33;16.20;99.90
2030;DHT22;1020;48.854;8.830;2023-05-07T13:58:02;16.00;1.00
2030;DHT22;1020;48.854;8.830;2023-05-07T14:00:29;15.90;99.90
2030;DHT22;1020;48.854;8.830;2023-05-07T14:02:56;15.70;1.00
2030;DHT22;1020;48.854;8.830;2023-05-07T14:05:23;15.60;1.00
2030;DHT22;1020;48.854;8.830;2023-05-07T14:07:50;15.40;1.00
2030;DHT22;1020;48.854;8.830;2023-05-07T14:10:18;15.20;1.00
2030;DHT22;1020;48.854;8.830;2023-05-07T14:12:45;15.20;21.70
2030;DHT22;1020;48.854;8.830;2023-05-07T14:15:13;15.10;99.90
2030;DHT22;1020;48.854;8.830;2023-05-07T14:17:40;15.00;99.90
2030;DHT22;1020;48.854;8.830;2023-05-07T14:20:08;14.90;99.90
2030;DHT22;1020;48.854;8.830;2023-05-07T14:22:36;14.80;99.90
2030;DHT22;1020;48.854;8.830;2023-05-07T14:25:03;14.80;99.90
2030;DHT22;1020;48.854;8.830;2023-05-07T14:27:30;14.80;99.90
2030;DHT22;1020;48.854;8.830;2023-05-07T14:29:57;14.80;99.90
2030;DHT22;1020;48.854;8.830;2023-05-07T14:32:25;14.90;99.90
2030;DHT22;1020;48.854;8.830;2023-05-07T14:34:51;14.90;99.90
2030;DHT22;1020;48.854;8.830;2023-05-07T14:37:18;15.00;99.90
2030;DHT22;1020;48.854;8.830;2023-05-07T14:39:45;15.00;99.90
2030;DHT22;1020;48.854;8.830;2023-05-07T14:42:12;15.10;99.90
2030;DHT22;1020;48.854;8.830;2023-05-07T14:44:39;15.10;99.90
2030;DHT22;1020;48.854;8.830;2023-05-07T14:47:07;15.20;99.90
2030;DHT22;1020;48.854;8.830;2023-05-07T14:49:35;15.20;99.90
2030;DHT22;1020;48.854;8.830;2023-05-07T14:52:02;15.20;99.90
2030;DHT22;1020;48.854;8.830;2023-05-07T14:54:33;15.20;99.90
2030;DHT22;1020;48.854;8.830;2023-05-07T14:57:00;15.40;99.90
2030;DHT22;1020;48.854;8.830;2023-05-07T14:59:27;15.60;99.90
2030;DHT22;1020;48.854;8.830;2023-05-07T15:01:54;15.70;99.90
2030;DHT22;1020;48.854;8.830;2023-05-07T15:04:21;15.90;99.90
2030;DHT22;1020;48.854;8.830;2023-05-07T15:06:49;16.10;99.90
2030;DHT22;1020;48.854;8.830;2023-05-07T15:09:15;16.20;99.90
2030;DHT22;1020;48.854;8.830;2023-05-07T15:11:42;16.40;99.90
2030;DHT22;1020;48.854;8.830;2023-05-07T15:14:09;16.40;99.90
2030;DHT22;1020;48.854;8.830;2023-05-07T15:16:35;16.30;99.90
2030;DHT22;1020;48.854;8.830;2023-05-07T15:19:02;16.20;99.90
2030;DHT22;1020;48.854;8.830;2023-05-07T15:21:30;16.10;99.90
2030;DHT22;1020;48.854;8.830;2023-05-07T15:24:01;16.10;99.90
2030;DHT22;1020;48.854;8.830;2023-05-07T15:26:27;16.20;99.90
2030;DHT22;1020;48.854;8.830;2023-05-07T15:28:54;16.00;99.90
2030;DHT22;1020;48.854;8.830;2023-05-07T15:31:22;16.00;99.90
2030;DHT22;1020;48.854;8.830;2023-05-07T15:33:49;16.00;99.90
2030;DHT22;1020;48.854;8.830;2023-05-07T15:36:17;16.00;99.90
2030;DHT22;1020;48.854;8.830;2023-05-07T15:38:44;16.00;99.90
2030;DHT22;1020;48.854;8.830;2023-05-07T15:41:12;16.10;99.90
2030;DHT22;1020;48.854;8.830;2023-05-07T15:43:43;16.10;99.90
2030;DHT22;1020;48.854;8.830;2023-05-07T15:46:10;16.30;99.90
2030;DHT22;1020;48.854;8.830;2023-05-07T15:48:37;16.40;99.90
2030;DHT22;1020;48.854;8.830;2023-05-07T15:51:04;16.40;99.90
2030;DHT22;1020;48.854;8.830;2023-05-07T15:53:33;16.40;99.90
2030;DHT22;1020;48.854;8.830;2023-05-07T15:56:00;16.50;99.90
2030;DHT22;1020;48.854;8.830;2023-05-07T15:58:28;16.70;99.90
2030;DHT22;1020;48.854;8.830;2023-05-07T16:00:54;16.70;99.90
2030;DHT22;1020;48.854;8.830;2023-05-07T16:03:22;16.70;99.90
2030;DHT22;1020;48.854;8.830;2023-05-07T16:05:49;16.80;99.90
2030;DHT22;1020;48.854;8.830;2023-05-07T16:08:15;16.80;99.90
2030;DHT22;1020;48.854;8.830;2023-05-07T16:10:42;16.90;99.90
2030;DHT22;1020;48.854;8.830;2023-05-07T16:13:09;17.10;99.90